createdAt,value
2018-05-07T08:47:13.094Z,44.30
2018-05-07T08:49:46.834Z,44.20
2018-05-07T08:52:22.607Z,41.10
2018-05-07T08:54:52.243Z,41.10
2018-05-07T08:57:31.728Z,41.10
2018-05-07T09:00:04.322Z,40.70
2018-05-07T09:02:33.354Z,40.60
2018-05-07T09:05:11.122Z,40.20
2018-05-07T09:07:42.214Z,39.10
2018-05-07T09:10:13.942Z,38.80
2018-05-07T09:12:41.962Z,40.10
2018-05-07T09:15:10.766Z,38.70
2018-05-07T09:17:40.715Z,38.70
2018-05-07T09:20:08.730Z,38.40
2018-05-07T09:22:36.727Z,38.90
2018-05-07T09:25:05.515Z,39.60
2018-05-07T09:27:33.535Z,39.60
2018-05-07T09:30:01.547Z,39.80
2018-05-07T09:32:29.546Z,38.60
2018-05-07T09:35:01.316Z,37.80
2018-05-07T09:37:29.315Z,37.80
2018-05-07T09:39:57.330Z,38.30
2018-05-07T09:42:26.357Z,37.10
2018-05-07T09:44:54.362Z,37.60
2018-05-07T09:47:25.132Z,35.50
2018-05-07T09:49:58.654Z,35.50
2018-05-07T09:52:28.362Z,37.30
2018-05-07T09:54:56.398Z,37.30
2018-05-07T09:57:26.379Z,36.20
2018-05-07T09:59:57.058Z,36.80
2018-05-07T10:02:33.215Z,36.80
2018-05-07T10:05:04.266Z,36.60
2018-05-07T10:07:36.958Z,36.10
2018-05-07T10:10:06.950Z,35.20
2018-05-07T10:12:34.954Z,34.60
2018-05-07T10:15:03.913Z,35.20
2018-05-07T10:17:33.842Z,34.60
2018-05-07T10:20:02.809Z,34.10
2018-05-07T10:22:35.090Z,33.50
2018-05-07T10:25:07.553Z,33.90
2018-05-07T10:27:40.559Z,33.00
2018-05-07T10:30:08.558Z,33.60
2018-05-07T10:32:43.734Z,33.00
2018-05-07T10:35:11.747Z,33.00
2018-05-07T10:37:40.710Z,33.90
2018-05-07T10:40:08.729Z,31.90
2018-05-07T10:42:48.485Z,31.80
2018-05-07T10:45:20.501Z,31.70
2018-05-07T10:47:49.481Z,31.80
2018-05-07T10:50:17.477Z,31.50
2018-05-07T10:52:50.853Z,31.10
2018-05-07T10:55:23.821Z,31.90
2018-05-07T10:57:52.837Z,30.00
2018-05-07T11:00:27.233Z,29.30
2018-05-07T11:02:55.257Z,30.30
2018-05-07T11:05:24.029Z,29.10
2018-05-07T11:07:52.033Z,29.10
2018-05-07T11:10:27.121Z,29.00
2018-05-07T11:12:59.065Z,28.80
2018-05-07T11:15:27.105Z,29.50
2018-05-07T11:17:57.065Z,29.60
2018-05-07T11:20:32.997Z,27.60
2018-05-07T11:23:10.773Z,27.70
2018-05-07T11:25:48.581Z,28.00
2018-05-07T11:28:16.585Z,28.10
2018-05-07T11:30:45.553Z,28.00
2018-05-07T11:33:15.502Z,28.00
2018-05-07T11:35:57.317Z,28.70
2018-05-07T11:38:26.113Z,27.40
2018-05-07T11:40:58.670Z,27.30
2018-05-07T11:43:26.701Z,27.30
2018-05-07T11:45:55.689Z,28.00
2018-05-07T11:48:23.700Z,28.00
2018-05-07T11:50:53.705Z,27.90
2018-05-07T11:53:21.696Z,28.10
2018-05-07T11:56:03.490Z,26.20
2018-05-07T11:58:36.741Z,26.20
2018-05-07T12:01:06.773Z,26.10
2018-05-07T12:03:39.941Z,26.30
2018-05-07T12:06:12.553Z,26.60
2018-05-07T12:08:46.129Z,26.90
2018-05-07T12:11:14.149Z,26.70
2018-05-07T12:13:42.908Z,25.30
2018-05-07T12:16:23.433Z,25.20
2018-05-07T12:18:56.533Z,26.20
2018-05-07T12:21:25.541Z,25.70
2018-05-07T12:23:59.733Z,25.00
2018-05-07T12:26:35.765Z,24.30
2018-05-07T12:29:03.789Z,25.20
2018-05-07T12:31:33.895Z,25.30
2018-05-07T12:34:15.725Z,25.60
2018-05-07T12:36:49.777Z,26.30
2018-05-07T12:39:21.457Z,26.60
2018-05-07T12:41:50.441Z,26.60
2018-05-07T12:44:22.029Z,25.80
2018-05-07T12:46:52.788Z,24.50
2018-05-07T12:49:28.065Z,24.50
2018-05-07T12:51:56.073Z,23.40
2018-05-07T12:57:19.817Z,25.40
2018-05-07T12:59:51.277Z,25.40
2018-05-07T13:02:19.289Z,25.50
2018-05-07T13:04:49.966Z,24.50
2018-05-07T13:07:18.029Z,24.50
2018-05-07T13:09:54.913Z,22.30
2018-05-07T13:12:22.961Z,22.30
2018-05-07T13:15:01.073Z,23.40
2018-05-07T13:17:34.301Z,23.80
2018-05-07T13:20:02.301Z,23.50
2018-05-07T13:22:37.481Z,24.30
2018-05-07T13:25:08.537Z,24.20
2018-05-07T13:27:36.561Z,24.00
2018-05-07T13:30:10.612Z,22.90
2018-05-07T13:32:39.647Z,22.90
2018-05-07T13:35:08.421Z,23.80
2018-05-07T13:37:36.429Z,23.80
2018-05-07T13:40:04.445Z,24.10
2018-05-07T13:42:40.665Z,24.20
2018-05-07T13:45:11.777Z,24.40
2018-05-07T13:47:40.717Z,23.80
2018-05-07T13:50:09.713Z,24.40
2018-05-07T13:52:39.644Z,23.70
2018-05-07T13:55:07.660Z,23.70
2018-05-07T13:57:38.436Z,23.00
2018-05-07T14:00:11.229Z,23.00
2018-05-07T14:02:41.173Z,23.30
2018-05-07T14:05:09.149Z,22.30
2018-05-07T14:07:42.508Z,23.00
2018-05-07T14:10:10.528Z,23.00
2018-05-07T14:12:47.737Z,23.30
2018-05-07T14:15:22.559Z,23.30
2018-05-07T14:18:00.177Z,22.60
2018-05-07T14:20:48.285Z,23.40
2018-05-07T14:23:20.692Z,23.20
2018-05-07T14:25:48.696Z,22.70
2018-05-07T14:28:17.476Z,23.10
2018-05-07T14:30:58.985Z,23.10
2018-05-07T14:33:28.784Z,23.50
2018-05-07T14:36:00.352Z,23.40
2018-05-07T14:38:28.328Z,23.00
2018-05-07T14:41:03.312Z,22.00
2018-05-07T14:43:32.290Z,22.20
2018-05-07T14:46:05.089Z,22.10
2018-05-07T14:48:38.792Z,23.10
2018-05-07T14:51:12.496Z,23.50
2018-05-07T14:53:47.072Z,23.70
2018-05-07T14:56:16.104Z,24.10
2018-05-07T14:58:50.483Z,24.20
2018-05-07T15:01:21.360Z,23.80
2018-05-07T15:03:51.368Z,24.10
2018-05-07T15:06:27.318Z,23.40
2018-05-07T15:08:55.332Z,23.30
2018-05-07T15:11:24.270Z,22.70
2018-05-07T15:14:04.084Z,23.50
2018-05-07T15:16:32.852Z,22.70
2018-05-07T15:19:05.498Z,22.70
2018-05-07T15:21:39.318Z,23.00
2018-05-07T15:24:07.348Z,23.30
2018-05-07T15:26:48.088Z,22.80
2018-05-07T15:29:20.266Z,21.80
2018-05-07T15:31:48.228Z,21.70
2018-05-07T15:34:16.991Z,22.20
2018-05-07T15:36:50.097Z,22.20
2018-05-07T15:39:24.344Z,22.50
2018-05-07T15:41:53.139Z,23.40
2018-05-07T15:44:23.067Z,23.40
2018-05-07T15:46:54.131Z,23.60
2018-05-07T15:49:31.704Z,22.70
2018-05-07T15:52:02.436Z,22.70
2018-05-07T15:54:36.916Z,22.80
2018-05-07T15:57:06.892Z,23.30
2018-05-07T15:59:35.863Z,22.90
2018-05-07T16:02:09.675Z,23.30
2018-05-07T16:04:40.812Z,23.40
2018-05-07T16:07:12.484Z,24.10
2018-05-07T16:09:45.976Z,23.60
2018-05-07T16:12:23.871Z,23.90
2018-05-07T16:14:53.902Z,23.80
2018-05-07T16:17:25.643Z,24.30
2018-05-07T16:19:53.639Z,23.50
2018-05-07T16:22:27.087Z,23.40
2018-05-07T16:24:59.564Z,23.40
2018-05-07T16:27:29.515Z,24.10
2018-05-07T16:30:07.196Z,23.80
2018-05-07T16:32:42.752Z,24.30
2018-05-07T16:35:16.323Z,24.40
2018-05-07T16:37:47.328Z,24.20
2018-05-07T16:40:19.339Z,24.50
2018-05-07T16:42:48.443Z,24.50
2018-05-07T16:45:23.704Z,24.50
2018-05-07T16:47:53.122Z,24.40
2018-05-07T16:50:22.881Z,24.80
2018-05-07T16:52:50.891Z,24.80
2018-05-07T16:55:18.903Z,25.00
2018-05-07T16:57:46.919Z,24.80
2018-05-07T17:00:20.808Z,24.90
2018-05-07T17:02:55.499Z,25.00
2018-05-07T17:05:26.631Z,24.50
2018-05-07T17:07:55.534Z,25.00
2018-05-07T17:10:23.546Z,24.90
2018-05-07T17:12:52.524Z,24.70
2018-05-07T17:15:20.583Z,25.20
2018-05-07T17:17:48.594Z,25.00
2018-05-07T17:20:17.012Z,25.30
2018-05-07T17:22:46.955Z,25.90
2018-05-07T17:25:14.967Z,25.70
2018-05-07T17:27:44.687Z,25.90
2018-05-07T17:30:17.128Z,26.20
2018-05-07T17:32:45.162Z,25.80
2018-05-07T17:35:13.996Z,26.10
2018-05-07T17:37:42.955Z,26.10
2018-05-07T17:40:16.687Z,26.20
2018-05-07T17:42:47.807Z,26.90
2018-05-07T17:48:29.167Z,27.00
2018-05-07T17:50:57.207Z,27.60
2018-05-07T17:53:28.331Z,27.60
2018-05-07T17:55:56.359Z,27.70
2018-05-07T17:58:44.999Z,27.80
2018-05-07T18:01:24.331Z,28.00
2018-05-07T18:04:02.968Z,28.30
2018-05-07T18:06:48.444Z,28.60
2018-05-07T18:09:26.359Z,28.60
2018-05-07T18:12:08.883Z,29.40
2018-05-07T18:14:36.891Z,30.10
2018-05-07T18:17:27.623Z,32.00
2018-05-07T18:19:55.659Z,31.80
2018-05-07T18:22:27.824Z,32.50
2018-05-07T18:24:59.363Z,33.10
2018-05-07T18:27:29.403Z,33.70
2018-05-07T18:29:58.403Z,33.90
2018-05-07T18:32:30.198Z,34.00
2018-05-07T18:35:01.170Z,34.30
2018-05-07T18:37:29.187Z,34.80
2018-05-07T18:39:57.207Z,34.90
2018-05-07T18:42:26.219Z,35.20
2018-05-07T18:44:57.967Z,35.60
2018-05-07T18:47:25.977Z,35.70
2018-05-07T18:49:55.887Z,35.90
2018-05-07T18:52:27.283Z,36.00
2018-05-07T18:54:56.885Z,36.30
2018-05-07T18:57:26.907Z,36.50
2018-05-07T18:59:58.874Z,36.80
2018-05-07T19:02:30.643Z,37.00
2018-05-07T19:05:14.755Z,37.10
2018-05-07T19:07:49.707Z,37.10
2018-05-07T19:13:18.187Z,37.30
2018-05-07T19:15:55.974Z,37.30
2018-05-07T19:18:42.978Z,37.40
2018-05-07T19:21:23.246Z,37.60
2018-05-07T19:23:59.927Z,37.70
2018-05-07T19:29:30.510Z,38.40
2018-05-07T19:32:07.095Z,39.00
2018-05-07T19:37:42.290Z,39.80
2018-05-07T19:40:18.032Z,40.00
2018-05-07T19:42:58.786Z,40.00
2018-05-07T19:45:28.786Z,40.20
2018-05-07T19:48:02.758Z,40.80
2018-05-07T19:53:30.839Z,40.90
2018-05-07T19:55:58.870Z,40.80
2018-05-07T19:58:28.638Z,40.70
2018-05-07T20:00:57.582Z,40.60
2018-05-07T20:03:29.282Z,40.50
2018-05-07T20:05:57.338Z,40.50
2018-05-07T20:08:26.230Z,40.80
2018-05-07T20:10:54.266Z,41.00
2018-05-07T20:13:22.266Z,41.10
2018-05-07T20:15:58.710Z,41.10
2018-05-07T20:18:27.667Z,41.20
2018-05-07T20:20:55.639Z,41.20
2018-05-07T20:23:23.654Z,41.30
2018-05-07T20:25:51.655Z,41.30
2018-05-07T20:28:19.667Z,41.20
2018-05-07T20:30:52.723Z,41.30
2018-05-07T20:33:20.843Z,41.20
2018-05-07T20:35:48.867Z,41.50
2018-05-07T20:38:16.886Z,41.60
2018-05-07T20:40:46.610Z,41.70
2018-05-07T20:43:14.699Z,41.70
2018-05-07T20:45:52.809Z,41.30
2018-05-07T20:48:28.975Z,41.30
2018-05-07T20:50:58.926Z,41.20
2018-05-07T20:53:30.106Z,41.30
2018-05-07T20:55:58.170Z,41.30
2018-05-07T20:58:27.034Z,41.00
2018-05-07T21:01:01.355Z,40.90
2018-05-07T21:03:29.374Z,41.00
2018-05-07T21:06:01.334Z,40.90
2018-05-07T21:08:29.342Z,40.70
2018-05-07T21:10:58.290Z,40.40
2018-05-07T21:13:26.310Z,40.40
2018-05-07T21:15:54.350Z,40.30
2018-05-07T21:18:25.046Z,40.40
2018-05-07T21:20:54.070Z,40.50
2018-05-07T21:23:34.286Z,40.70
2018-05-07T21:26:03.305Z,40.70
2018-05-07T21:28:32.210Z,41.30
2018-05-07T21:31:02.131Z,40.60
2018-05-07T21:33:30.169Z,40.60
2018-05-07T21:35:58.211Z,40.60
2018-05-07T21:38:27.138Z,40.80
2018-05-07T21:40:56.077Z,40.90
2018-05-07T21:43:25.033Z,41.10
2018-05-07T21:45:58.925Z,41.20
2018-05-07T21:48:26.965Z,41.20
2018-05-07T21:50:54.973Z,41.40
2018-05-07T21:53:23.017Z,41.30
2018-05-07T21:56:04.061Z,41.30
2018-05-07T21:58:32.089Z,41.40
2018-05-07T22:01:00.110Z,41.50
2018-05-07T22:03:29.025Z,41.70
2018-05-07T22:05:57.061Z,41.70
2018-05-07T22:08:25.993Z,41.70
2018-05-07T22:10:54.037Z,42.10
2018-05-07T22:13:22.965Z,42.20
2018-05-07T22:15:51.965Z,42.40
2018-05-07T22:18:23.865Z,42.70
2018-05-07T22:20:51.877Z,42.80
2018-05-07T22:23:26.742Z,43.00
2018-05-07T22:26:00.401Z,43.30
2018-05-07T22:28:29.337Z,43.70
2018-05-07T22:30:58.119Z,43.80
2018-05-07T22:33:26.934Z,44.10
2018-05-07T22:35:54.949Z,43.60
2018-05-07T22:38:22.953Z,43.80
2018-05-07T22:40:51.730Z,44.30
2018-05-07T22:43:20.523Z,44.60
2018-05-07T22:45:52.361Z,44.80
2018-05-07T22:48:20.400Z,44.80
2018-05-07T22:50:50.334Z,45.10
2018-05-07T22:53:21.584Z,45.20
2018-05-07T22:55:54.161Z,45.40
2018-05-07T22:58:23.188Z,45.40
2018-05-07T23:00:52.037Z,46.30
2018-05-07T23:03:20.753Z,45.90
2018-05-07T23:05:49.565Z,46.00
2018-05-07T23:08:17.580Z,45.90
2018-05-07T23:10:46.600Z,45.90
2018-05-07T23:13:14.624Z,46.20
2018-05-07T23:15:44.311Z,46.50
2018-05-07T23:18:12.316Z,46.50
2018-05-07T23:20:44.608Z,47.20
2018-05-07T23:23:16.284Z,46.80
2018-05-07T23:25:50.752Z,47.20
2018-05-07T23:28:18.802Z,47.20
2018-05-07T23:30:49.452Z,47.60
2018-05-07T23:33:18.489Z,47.60
2018-05-07T23:35:46.488Z,47.90
2018-05-07T23:38:14.495Z,48.20
2018-05-07T23:40:43.515Z,48.40
2018-05-07T23:43:12.479Z,48.50
2018-05-07T23:45:41.489Z,48.70
2018-05-07T23:48:12.652Z,48.80
2018-05-07T23:50:52.012Z,49.00
2018-05-07T23:53:21.985Z,49.10
2018-05-07T23:55:55.580Z,49.30
2018-05-07T23:58:23.656Z,49.10
